createdAt,value
2019-02-26T00:00:46.939Z,0
2019-02-26T00:01:41.040Z,0
2019-02-26T00:02:41.043Z,0
2019-02-26T00:03:42.642Z,0
2019-02-26T00:04:43.523Z,0
2019-02-26T00:05:40.805Z,0
2019-02-26T00:06:42.385Z,0
2019-02-26T00:07:40.746Z,0
2019-02-26T00:08:40.487Z,0
2019-02-26T00:09:42.560Z,0
2019-02-26T00:10:43.697Z,0
2019-02-26T00:11:45.002Z,0
2019-02-26T00:12:42.503Z,0
2019-02-26T00:13:42.967Z,0
2019-02-26T00:14:42.997Z,0
2019-02-26T00:15:48.408Z,0
2019-02-26T00:16:51.045Z,0
2019-02-26T00:17:52.990Z,0
2019-02-26T00:18:42.602Z,0
2019-02-26T00:19:40.655Z,0
2019-02-26T00:20:46.045Z,0
2019-02-26T00:21:40.641Z,0
2019-02-26T00:22:43.974Z,0
2019-02-26T00:23:41.630Z,0
2019-02-26T00:24:48.560Z,0
2019-02-26T00:25:40.580Z,0
2019-02-26T00:26:47.369Z,0
2019-02-26T00:27:42.088Z,0
2019-02-26T00:28:46.515Z,0
2019-02-26T00:29:40.543Z,0
2019-02-26T00:30:46.459Z,0
2019-02-26T00:31:40.543Z,0
2019-02-26T00:32:45.194Z,0
2019-02-26T00:33:40.763Z,0
2019-02-26T00:34:44.023Z,0
2019-02-26T00:35:44.221Z,0
2019-02-26T00:36:42.770Z,0
2019-02-26T00:37:40.466Z,0
2019-02-26T00:38:46.865Z,0
2019-02-26T00:39:40.208Z,0
2019-02-26T00:40:45.642Z,0
2019-02-26T00:41:44.815Z,0
2019-02-26T00:42:43.034Z,0
2019-02-26T00:43:43.274Z,0
2019-02-26T00:44:43.928Z,0
2019-02-26T00:45:43.923Z,0
2019-02-26T00:46:44.351Z,0
2019-02-26T00:47:48.471Z,0
2019-02-26T00:48:45.588Z,0
2019-02-26T00:49:41.964Z,0
2019-02-26T00:50:44.370Z,0
2019-02-26T00:51:45.965Z,0
2019-02-26T00:52:44.050Z,0
2019-02-26T00:53:40.587Z,0
2019-02-26T00:54:41.534Z,0
2019-02-26T00:55:44.242Z,0
2019-02-26T00:56:43.953Z,0
2019-02-26T00:57:45.596Z,0
2019-02-26T00:58:50.370Z,0
2019-02-26T00:59:50.318Z,0
2019-02-26T01:00:42.292Z,0
2019-02-26T01:01:40.052Z,0
2019-02-26T01:02:40.498Z,0
2019-02-26T01:03:42.403Z,0
2019-02-26T01:04:43.804Z,0
2019-02-26T01:05:46.016Z,0
2019-02-26T01:06:40.734Z,0
2019-02-26T01:07:41.896Z,0
2019-02-26T01:08:45.370Z,0
2019-02-26T01:09:40.758Z,0
2019-02-26T01:10:47.579Z,0
2019-02-26T01:11:40.177Z,0
2019-02-26T01:12:46.925Z,0
2019-02-26T01:13:40.139Z,0
2019-02-26T01:14:44.000Z,0
2019-02-26T01:15:39.882Z,0
2019-02-26T01:16:45.847Z,0
2019-02-26T01:17:44.467Z,0
2019-02-26T01:18:42.049Z,0
2019-02-26T01:19:45.510Z,0
2019-02-26T01:20:40.110Z,0
2019-02-26T01:21:42.724Z,0
2019-02-26T01:22:47.642Z,0
2019-02-26T01:23:39.568Z,0
2019-02-26T01:24:40.289Z,0
2019-02-26T01:25:43.058Z,0
2019-02-26T01:26:42.505Z,0
2019-02-26T01:27:41.350Z,0
2019-02-26T01:28:44.040Z,0
2019-02-26T01:29:40.000Z,0
2019-02-26T01:30:42.881Z,0
2019-02-26T01:31:40.915Z,0
2019-02-26T01:32:39.987Z,0
2019-02-26T01:33:41.238Z,0
2019-02-26T01:34:42.665Z,0
2019-02-26T01:35:42.448Z,0
2019-02-26T01:36:42.616Z,0
2019-02-26T01:37:43.400Z,0
2019-02-26T01:38:48.662Z,0
2019-02-26T01:39:47.152Z,0
2019-02-26T01:40:45.998Z,0
2019-02-26T01:41:45.977Z,0
2019-02-26T01:42:39.640Z,0
2019-02-26T01:43:39.630Z,0
2019-02-26T01:44:46.894Z,0
2019-02-26T01:45:40.115Z,0
2019-02-26T01:46:45.477Z,0
2019-02-26T01:47:40.423Z,0
2019-02-26T01:48:44.239Z,0
2019-02-26T01:49:39.752Z,0
2019-02-26T01:50:44.771Z,0
2019-02-26T01:51:39.321Z,0
2019-02-26T01:52:39.568Z,0
2019-02-26T01:53:41.924Z,0
2019-02-26T01:54:43.804Z,0
2019-02-26T01:55:43.665Z,0
2019-02-26T01:56:43.463Z,0
2019-02-26T01:57:42.453Z,0
2019-02-26T01:58:40.912Z,0
2019-02-26T01:59:41.506Z,0
2019-02-26T02:00:42.903Z,0
2019-02-26T02:01:46.456Z,0
2019-02-26T02:02:39.809Z,0
2019-02-26T02:03:39.702Z,0
2019-02-26T02:04:45.677Z,0
2019-02-26T02:05:43.206Z,0
2019-02-26T02:06:43.768Z,0
2019-02-26T02:07:39.404Z,0
2019-02-26T02:08:48.640Z,0
2019-02-26T02:09:39.902Z,0
2019-02-26T02:10:39.642Z,0
2019-02-26T02:11:44.531Z,0
2019-02-26T02:12:44.219Z,0
2019-02-26T02:13:46.206Z,0
2019-02-26T02:14:39.612Z,0
2019-02-26T02:15:46.402Z,0
2019-02-26T02:16:40.491Z,0
2019-02-26T02:17:44.756Z,0
2019-02-26T02:18:43.608Z,0
2019-02-26T02:19:39.598Z,0
2019-02-26T02:20:39.791Z,0
2019-02-26T02:21:42.406Z,0
2019-02-26T02:22:44.596Z,0
2019-02-26T02:23:39.525Z,0
2019-02-26T02:24:48.479Z,0
2019-02-26T02:25:46.019Z,0
2019-02-26T02:26:41.056Z,0
2019-02-26T02:27:40.286Z,0
2019-02-26T02:28:42.062Z,0
2019-02-26T02:29:41.764Z,0
2019-02-26T02:30:43.963Z,0
2019-02-26T02:31:44.884Z,0
2019-02-26T02:32:41.181Z,0
2019-02-26T02:33:42.385Z,0
2019-02-26T02:34:45.691Z,0
2019-02-26T02:35:39.652Z,0
2019-02-26T02:36:39.640Z,0
2019-02-26T02:37:38.889Z,0
2019-02-26T02:38:43.524Z,0
2019-02-26T02:39:39.345Z,0
2019-02-26T02:40:43.145Z,0
2019-02-26T02:41:45.323Z,0
2019-02-26T02:42:49.020Z,0
2019-02-26T02:43:39.331Z,0
2019-02-26T02:44:43.801Z,0
2019-02-26T02:45:39.321Z,0
2019-02-26T02:46:46.699Z,0
2019-02-26T02:47:43.628Z,0
2019-02-26T02:48:39.272Z,0
2019-02-26T02:49:46.682Z,0
2019-02-26T02:50:39.531Z,0
2019-02-26T02:51:44.155Z,0
2019-02-26T02:52:42.510Z,0
2019-02-26T02:53:39.642Z,0
2019-02-26T02:54:43.945Z,0
2019-02-26T02:55:43.181Z,0
2019-02-26T02:56:46.661Z,0
2019-02-26T02:57:41.272Z,0
2019-02-26T02:58:43.197Z,0
2019-02-26T02:59:44.733Z,0
2019-02-26T03:00:41.685Z,0
2019-02-26T03:01:39.393Z,0
2019-02-26T03:02:50.710Z,0
2019-02-26T03:03:38.869Z,0
2019-02-26T03:04:41.930Z,0
2019-02-26T03:05:48.298Z,0
2019-02-26T03:06:43.363Z,0
2019-02-26T03:07:38.846Z,0
2019-02-26T03:08:39.824Z,0
2019-02-26T03:09:48.158Z,0
2019-02-26T03:10:47.475Z,0
2019-02-26T03:11:49.565Z,0
2019-02-26T03:12:39.316Z,0
2019-02-26T03:13:40.328Z,0
2019-02-26T03:14:46.939Z,0
2019-02-26T03:15:42.757Z,0
2019-02-26T03:16:41.936Z,0
2019-02-26T03:17:38.997Z,0
2019-02-26T03:18:38.977Z,0
2019-02-26T03:19:46.113Z,0
2019-02-26T03:20:46.817Z,0
2019-02-26T03:21:38.967Z,0
2019-02-26T03:22:51.250Z,0
2019-02-26T03:23:47.956Z,0
2019-02-26T03:24:42.925Z,0
2019-02-26T03:25:41.283Z,0
2019-02-26T03:26:38.659Z,0
2019-02-26T03:27:44.849Z,0
2019-02-26T03:28:47.953Z,0
2019-02-26T03:29:38.876Z,0
2019-02-26T03:30:49.264Z,0
2019-02-26T03:31:55.420Z,0
2019-02-26T03:32:45.882Z,0
2019-02-26T03:33:38.952Z,0
2019-02-26T03:34:39.112Z,0
2019-02-26T03:35:38.601Z,0
2019-02-26T03:36:47.944Z,0
2019-02-26T03:37:42.971Z,0
2019-02-26T03:38:40.817Z,0
2019-02-26T03:39:39.042Z,0
2019-02-26T03:40:41.178Z,0
2019-02-26T03:41:39.253Z,0
2019-02-26T03:42:48.180Z,0
2019-02-26T03:43:44.236Z,0
2019-02-26T03:44:38.737Z,0
2019-02-26T03:45:38.974Z,0
2019-02-26T03:46:38.717Z,0
2019-02-26T03:47:42.584Z,0
2019-02-26T03:48:38.945Z,0
2019-02-26T03:49:41.649Z,0
2019-02-26T03:50:38.777Z,0
2019-02-26T03:51:43.820Z,0
2019-02-26T03:52:39.395Z,0
2019-02-26T03:53:46.478Z,0
2019-02-26T03:54:45.285Z,0
2019-02-26T03:55:46.276Z,0
2019-02-26T03:56:38.391Z,0
2019-02-26T03:57:46.860Z,0
2019-02-26T03:58:38.838Z,0
2019-02-26T03:59:38.330Z,0
2019-02-26T04:00:47.106Z,0
2019-02-26T04:01:38.572Z,0
2019-02-26T04:02:43.035Z,0
2019-02-26T04:03:44.662Z,0
2019-02-26T04:04:40.329Z,0
2019-02-26T04:05:38.515Z,0
2019-02-26T04:06:48.302Z,0
2019-02-26T04:07:40.940Z,0
2019-02-26T04:08:38.730Z,0
2019-02-26T04:09:44.913Z,0
2019-02-26T04:10:38.721Z,0
2019-02-26T04:11:39.325Z,0
2019-02-26T04:12:51.348Z,0
2019-02-26T04:13:38.201Z,0
2019-02-26T04:14:38.451Z,0
2019-02-26T04:15:43.214Z,0
2019-02-26T04:16:45.239Z,0
2019-02-26T04:17:46.871Z,0
2019-02-26T04:18:41.899Z,0
2019-02-26T04:19:38.375Z,0
2019-02-26T04:20:43.258Z,0
2019-02-26T04:21:38.106Z,0
2019-02-26T04:22:42.860Z,0
2019-02-26T04:23:46.967Z,0
2019-02-26T04:24:42.895Z,0
2019-02-26T04:25:42.696Z,0
2019-02-26T04:26:42.057Z,0
2019-02-26T04:27:46.591Z,0
2019-02-26T04:28:47.568Z,0
2019-02-26T04:29:49.327Z,0
2019-02-26T04:30:49.675Z,0
2019-02-26T04:31:38.510Z,0
2019-02-26T04:32:46.130Z,0
2019-02-26T04:33:43.814Z,0
2019-02-26T04:34:38.480Z,0
2019-02-26T04:35:38.223Z,0
2019-02-26T04:36:44.746Z,0
2019-02-26T04:37:43.372Z,0
2019-02-26T04:38:38.239Z,0
2019-02-26T04:39:44.924Z,0
2019-02-26T04:40:43.440Z,0
2019-02-26T04:41:39.623Z,0
2019-02-26T04:42:45.982Z,0
2019-02-26T04:43:43.560Z,0
2019-02-26T04:44:40.766Z,0
2019-02-26T04:45:38.366Z,0
2019-02-26T04:46:41.842Z,0
2019-02-26T04:47:45.914Z,0
2019-02-26T04:48:40.847Z,0
2019-02-26T04:49:45.259Z,0
2019-02-26T04:50:47.050Z,0
2019-02-26T04:51:44.984Z,0
2019-02-26T04:52:45.842Z,0
2019-02-26T04:53:41.187Z,0
2019-02-26T04:54:44.228Z,0
2019-02-26T04:55:47.347Z,0
2019-02-26T04:56:48.645Z,0
2019-02-26T04:57:43.183Z,0
2019-02-26T04:58:45.831Z,0
2019-02-26T04:59:46.130Z,0
2019-02-26T05:00:43.240Z,0
2019-02-26T05:01:39.556Z,0
2019-02-26T05:02:37.956Z,0
2019-02-26T05:03:38.169Z,0
2019-02-26T05:04:44.597Z,0
2019-02-26T05:05:42.029Z,0
2019-02-26T05:06:37.915Z,0
2019-02-26T05:07:46.999Z,0
2019-02-26T05:08:45.322Z,0
2019-02-26T05:09:42.084Z,0
2019-02-26T05:10:40.428Z,0
2019-02-26T05:11:45.470Z,0
2019-02-26T05:12:44.660Z,0
2019-02-26T05:13:41.337Z,0
2019-02-26T05:14:37.838Z,0
2019-02-26T05:15:40.106Z,0
2019-02-26T05:16:44.849Z,0
2019-02-26T05:17:40.547Z,0
2019-02-26T05:18:43.722Z,0
2019-02-26T05:19:39.403Z,0
2019-02-26T05:20:48.348Z,0
2019-02-26T05:21:42.764Z,0
2019-02-26T05:22:40.424Z,0
2019-02-26T05:23:40.448Z,0
2019-02-26T05:24:41.014Z,0
2019-02-26T05:25:44.890Z,0
2019-02-26T05:26:37.676Z,0
2019-02-26T05:27:42.201Z,0
2019-02-26T05:28:51.457Z,0
2019-02-26T05:29:40.181Z,0
2019-02-26T05:30:41.201Z,0
2019-02-26T05:31:45.659Z,0
2019-02-26T05:32:40.438Z,0
2019-02-26T05:33:39.668Z,0
2019-02-26T05:34:42.654Z,0
2019-02-26T05:35:40.807Z,0
2019-02-26T05:36:48.277Z,0
2019-02-26T05:37:45.238Z,0
2019-02-26T05:38:43.288Z,0
2019-02-26T05:39:37.798Z,0
2019-02-26T05:40:45.830Z,0
2019-02-26T05:41:37.278Z,0
2019-02-26T05:42:37.757Z,0
2019-02-26T05:43:40.825Z,0
2019-02-26T05:44:37.745Z,4
2019-02-26T05:45:41.828Z,4
2019-02-26T05:46:37.726Z,4
2019-02-26T05:47:37.715Z,0
2019-02-26T05:48:40.586Z,4
2019-02-26T05:49:45.974Z,4
2019-02-26T05:50:47.038Z,4
2019-02-26T05:51:42.634Z,8
2019-02-26T05:52:40.742Z,8
2019-02-26T05:53:37.681Z,12
2019-02-26T05:54:37.419Z,12
2019-02-26T05:55:37.421Z,12
2019-02-26T05:56:44.047Z,20
2019-02-26T05:57:39.782Z,20
2019-02-26T05:58:44.138Z,24
2019-02-26T05:59:37.329Z,28
2019-02-26T06:00:40.125Z,36
2019-02-26T06:01:37.325Z,40
2019-02-26T06:02:42.543Z,48
2019-02-26T06:03:38.424Z,56
2019-02-26T06:04:46.548Z,64
2019-02-26T06:05:41.060Z,68
2019-02-26T06:06:37.349Z,80
2019-02-26T06:07:43.467Z,92
2019-02-26T06:08:43.682Z,104
2019-02-26T06:09:40.283Z,116
2019-02-26T06:10:39.522Z,136
2019-02-26T06:11:50.049Z,156
2019-02-26T06:12:46.651Z,168
2019-02-26T06:13:45.442Z,188
2019-02-26T06:14:43.703Z,212
2019-02-26T06:15:40.750Z,228
2019-02-26T06:16:38.697Z,256
2019-02-26T06:17:46.262Z,288
2019-02-26T06:18:40.990Z,312
2019-02-26T06:19:46.900Z,352
2019-02-26T06:20:41.444Z,380
2019-02-26T06:21:39.577Z,416
2019-02-26T06:22:39.448Z,448
2019-02-26T06:23:45.557Z,496
2019-02-26T06:24:42.686Z,532
2019-02-26T06:25:37.392Z,564
2019-02-26T06:26:45.559Z,608
2019-02-26T06:27:36.824Z,640
2019-02-26T06:28:43.515Z,676
2019-02-26T06:29:42.150Z,712
2019-02-26T06:30:37.283Z,744
2019-02-26T06:31:37.598Z,776
2019-02-26T06:32:46.535Z,820
2019-02-26T06:33:47.188Z,856
2019-02-26T06:34:37.244Z,892
2019-02-26T06:35:43.538Z,932
2019-02-26T06:36:37.147Z,968
2019-02-26T06:37:42.753Z,1020
2019-02-26T06:38:39.860Z,1056
2019-02-26T06:39:41.085Z,1100
2019-02-26T06:40:49.002Z,1140
2019-02-26T06:41:39.379Z,1176
2019-02-26T06:42:42.821Z,1224
2019-02-26T06:43:48.285Z,1272
2019-02-26T06:44:38.809Z,1320
2019-02-26T06:45:40.297Z,1368
2019-02-26T06:46:43.122Z,1428
2019-02-26T06:47:39.772Z,1488
2019-02-26T06:48:39.193Z,1552
2019-02-26T06:49:36.838Z,1608
2019-02-26T06:50:43.927Z,1680
2019-02-26T06:51:37.710Z,1728
2019-02-26T06:52:48.402Z,1752
2019-02-26T06:53:37.081Z,1772
2019-02-26T06:54:39.003Z,1764
2019-02-26T06:55:36.549Z,1808
2019-02-26T06:56:48.045Z,1868
2019-02-26T06:57:36.758Z,1904
2019-02-26T06:58:40.468Z,1936
2019-02-26T06:59:41.356Z,1960
2019-02-26T07:00:36.765Z,1996
2019-02-26T07:01:43.674Z,2052
2019-02-26T07:02:36.991Z,2100
2019-02-26T07:03:40.290Z,2156
2019-02-26T07:04:36.893Z,2212
2019-02-26T07:05:36.979Z,2268
2019-02-26T07:06:40.431Z,2336
2019-02-26T07:07:36.919Z,2404
2019-02-26T07:08:38.216Z,2460
2019-02-26T07:09:41.880Z,2528
2019-02-26T07:10:40.630Z,2596
2019-02-26T07:11:42.613Z,2652
2019-02-26T07:12:38.692Z,2728
2019-02-26T07:13:43.422Z,2880
2019-02-26T07:14:39.353Z,2976
2019-02-26T07:15:36.838Z,3036
2019-02-26T07:16:39.763Z,3040
2019-02-26T07:17:46.232Z,3108
2019-02-26T07:18:36.324Z,3224
2019-02-26T07:19:40.817Z,3328
2019-02-26T07:20:50.435Z,3444
2019-02-26T07:21:37.981Z,3528
2019-02-26T07:22:36.026Z,3576
2019-02-26T07:23:42.507Z,3552
2019-02-26T07:24:38.414Z,3552
2019-02-26T07:25:46.331Z,3720
2019-02-26T07:26:41.074Z,3720
2019-02-26T07:27:42.438Z,3716
2019-02-26T07:28:36.509Z,3892
2019-02-26T07:29:49.739Z,4036
2019-02-26T07:30:42.209Z,4084
2019-02-26T07:31:39.874Z,4240
2019-02-26T07:32:40.620Z,4284
2019-02-26T07:33:42.002Z,4484
2019-02-26T07:34:36.413Z,4844
2019-02-26T07:35:42.093Z,5424
2019-02-26T07:36:36.412Z,5328
2019-02-26T07:37:42.797Z,5320
2019-02-26T07:38:49.469Z,5332
2019-02-26T07:39:36.619Z,5484
2019-02-26T07:40:45.056Z,5332
2019-02-26T07:41:37.314Z,5672
2019-02-26T07:42:46.554Z,5684
2019-02-26T07:43:41.695Z,5572
2019-02-26T07:44:36.109Z,5184
2019-02-26T07:45:39.203Z,5956
2019-02-26T07:46:42.455Z,5860
2019-02-26T07:47:40.868Z,5956
2019-02-26T07:48:38.534Z,5792
2019-02-26T07:49:36.333Z,5464
2019-02-26T07:50:50.780Z,6124
2019-02-26T07:51:44.872Z,6044
2019-02-26T07:52:39.364Z,6112
2019-02-26T07:53:36.319Z,5676
2019-02-26T07:54:37.698Z,5708
2019-02-26T07:55:44.696Z,5620
2019-02-26T07:56:38.988Z,6104
2019-02-26T07:57:36.323Z,6132
2019-02-26T07:58:43.365Z,6168
2019-02-26T07:59:44.935Z,6596
2019-02-26T08:00:47.766Z,6616
2019-02-26T08:01:39.770Z,6608
2019-02-26T08:02:39.756Z,6600
2019-02-26T08:03:36.158Z,6592
2019-02-26T08:04:43.500Z,6524
2019-02-26T08:05:36.278Z,6492
2019-02-26T08:06:40.975Z,6464
2019-02-26T08:07:37.998Z,6436
2019-02-26T08:08:37.433Z,6456
2019-02-26T08:09:36.271Z,6476
2019-02-26T08:10:44.673Z,6420
2019-02-26T08:11:41.222Z,6312
2019-02-26T08:12:44.719Z,6436
2019-02-26T08:13:41.321Z,6428
2019-02-26T08:14:37.936Z,6424
2019-02-26T08:15:42.321Z,6240
2019-02-26T08:16:37.238Z,6272
2019-02-26T08:17:36.023Z,6228
2019-02-26T08:18:36.259Z,6244
2019-02-26T08:19:46.665Z,6144
2019-02-26T08:20:42.723Z,6300
2019-02-26T08:21:36.717Z,6088
2019-02-26T08:22:41.059Z,6224
2019-02-26T08:23:36.501Z,6244
2019-02-26T08:24:36.262Z,6340
2019-02-26T08:25:36.504Z,6432
2019-02-26T08:26:38.100Z,6560
2019-02-26T08:27:42.480Z,6412
2019-02-26T08:28:38.450Z,6580
2019-02-26T08:29:40.685Z,6560
2019-02-26T08:30:40.122Z,6620
2019-02-26T08:31:36.503Z,6700
2019-02-26T08:32:39.107Z,6612
2019-02-26T08:33:36.005Z,6708
2019-02-26T08:34:39.078Z,6736
2019-02-26T08:35:36.493Z,6772
2019-02-26T08:36:35.760Z,6784
2019-02-26T08:37:36.258Z,6828
2019-02-26T08:38:36.917Z,6596
2019-02-26T08:39:40.010Z,6608
2019-02-26T08:40:36.261Z,6684
2019-02-26T08:41:36.243Z,6764
2019-02-26T08:42:36.305Z,6820
2019-02-26T08:43:36.476Z,6764
2019-02-26T08:44:36.235Z,6808
2019-02-26T08:45:38.170Z,6952
2019-02-26T08:46:37.774Z,6860
2019-02-26T08:47:36.321Z,6860
2019-02-26T08:48:35.971Z,6964
2019-02-26T08:49:40.630Z,7020
2019-02-26T08:50:44.492Z,7108
2019-02-26T08:51:37.014Z,7056
2019-02-26T08:52:36.428Z,7100
2019-02-26T08:53:38.494Z,7056
2019-02-26T08:54:40.700Z,7020
2019-02-26T08:55:36.191Z,7060
2019-02-26T08:56:43.385Z,7204
2019-02-26T08:57:36.178Z,7232
2019-02-26T08:58:36.193Z,7316
2019-02-26T08:59:36.411Z,7128
2019-02-26T09:00:36.773Z,7252
2019-02-26T09:01:36.183Z,6476
2019-02-26T09:02:35.910Z,6560
2019-02-26T09:03:44.945Z,7356
2019-02-26T09:04:40.264Z,7080
2019-02-26T09:05:41.350Z,7028
2019-02-26T09:06:36.182Z,6948
2019-02-26T09:07:37.516Z,7052
2019-02-26T09:08:43.092Z,6832
2019-02-26T09:09:38.178Z,6744
2019-02-26T09:10:36.762Z,6644
2019-02-26T09:11:41.067Z,6364
2019-02-26T09:12:36.861Z,6588
2019-02-26T09:13:43.818Z,6700
2019-02-26T09:14:45.041Z,6644
2019-02-26T09:15:43.760Z,6820
2019-02-26T09:16:39.288Z,7004
2019-02-26T09:17:44.373Z,7300
2019-02-26T09:18:43.047Z,7428
2019-02-26T09:19:40.593Z,7408
2019-02-26T09:20:36.315Z,7396
2019-02-26T09:21:41.760Z,7432
2019-02-26T09:22:36.045Z,7268
2019-02-26T09:23:37.393Z,7288
2019-02-26T09:24:36.031Z,7404
2019-02-26T09:25:38.823Z,7368
2019-02-26T09:26:35.762Z,7360
2019-02-26T09:27:45.418Z,7352
2019-02-26T09:28:36.902Z,7344
2019-02-26T09:29:39.637Z,7336
2019-02-26T09:30:43.234Z,7320
2019-02-26T09:31:36.024Z,7288
2019-02-26T09:32:42.703Z,7312
2019-02-26T09:33:45.537Z,7284
2019-02-26T09:34:42.394Z,7288
2019-02-26T09:35:39.424Z,7280
2019-02-26T09:36:36.135Z,7248
2019-02-26T09:37:36.194Z,7240
2019-02-26T09:38:36.191Z,7132
2019-02-26T09:39:41.525Z,7196
2019-02-26T09:40:40.479Z,7188
2019-02-26T09:41:43.263Z,7180
2019-02-26T09:42:38.813Z,7180
2019-02-26T09:43:36.140Z,7140
2019-02-26T09:44:40.579Z,7176
2019-02-26T09:45:37.353Z,7180
2019-02-26T09:46:45.466Z,7164
2019-02-26T09:47:39.916Z,7188
2019-02-26T09:48:38.614Z,7196
2019-02-26T09:49:40.458Z,7188
2019-02-26T09:50:38.159Z,7192
2019-02-26T09:51:42.020Z,7184
2019-02-26T09:52:39.589Z,7160
2019-02-26T09:53:35.870Z,7140
2019-02-26T09:54:42.779Z,7092
2019-02-26T09:55:35.877Z,7060
2019-02-26T09:56:35.886Z,7072
2019-02-26T09:57:35.678Z,7060
2019-02-26T09:58:37.468Z,7056
2019-02-26T09:59:40.944Z,7036
2019-02-26T10:00:36.309Z,7024
2019-02-26T10:01:42.878Z,7012
2019-02-26T10:02:35.857Z,6996
2019-02-26T10:03:43.889Z,6952
2019-02-26T10:04:36.692Z,6920
2019-02-26T10:05:35.817Z,6876
2019-02-26T10:06:39.789Z,6860
2019-02-26T10:07:41.572Z,6836
2019-02-26T10:08:37.802Z,6832
2019-02-26T10:09:45.835Z,6796
2019-02-26T10:10:42.325Z,6804
2019-02-26T10:11:36.054Z,6808
2019-02-26T10:12:41.720Z,6904
2019-02-26T10:13:35.546Z,6668
2019-02-26T10:14:40.960Z,6568
2019-02-26T10:15:41.879Z,6816
2019-02-26T10:16:39.557Z,6820
2019-02-26T10:17:43.249Z,6808
2019-02-26T10:18:37.613Z,6784
2019-02-26T10:19:43.310Z,6792
2019-02-26T10:20:38.716Z,6784
2019-02-26T10:21:43.010Z,6768
2019-02-26T10:22:44.701Z,6716
2019-02-26T10:23:39.994Z,6708
2019-02-26T10:24:42.687Z,6660
2019-02-26T10:25:43.122Z,6700
2019-02-26T10:26:43.837Z,6700
2019-02-26T10:27:47.781Z,6668
2019-02-26T10:28:45.593Z,6656
2019-02-26T10:29:42.657Z,6632
2019-02-26T10:30:44.196Z,6584
2019-02-26T10:31:39.984Z,6560
2019-02-26T10:32:37.390Z,6588
2019-02-26T10:33:43.783Z,6576
2019-02-26T10:34:37.324Z,6376
2019-02-26T10:35:49.370Z,6452
2019-02-26T10:36:49.634Z,6564
2019-02-26T10:37:43.639Z,6552
2019-02-26T10:38:42.802Z,6544
2019-02-26T10:39:36.997Z,6524
2019-02-26T10:41:01.779Z,6516
2019-02-26T10:41:39.797Z,6504
2019-02-26T10:42:46.193Z,6480
2019-02-26T10:43:35.726Z,6448
2019-02-26T10:44:35.696Z,6436
2019-02-26T10:45:46.968Z,6408
2019-02-26T10:46:42.733Z,6368
2019-02-26T10:47:39.187Z,6388
2019-02-26T10:48:35.686Z,6332
2019-02-26T10:49:35.754Z,6304
2019-02-26T10:50:42.968Z,6324
2019-02-26T10:51:35.690Z,6320
2019-02-26T10:52:35.707Z,6248
2019-02-26T10:53:35.913Z,6192
2019-02-26T10:54:46.668Z,5884
2019-02-26T10:55:45.675Z,6176
2019-02-26T10:56:47.149Z,6108
2019-02-26T10:57:40.826Z,6120
2019-02-26T10:58:35.429Z,6076
2019-02-26T10:59:35.946Z,6120
2019-02-26T11:00:42.536Z,6168
2019-02-26T11:01:38.767Z,6168
2019-02-26T11:02:35.664Z,6112
2019-02-26T11:03:44.890Z,6140
2019-02-26T11:04:50.285Z,6120
2019-02-26T11:05:37.667Z,6100
2019-02-26T11:06:46.944Z,5684
2019-02-26T11:07:42.771Z,5764
2019-02-26T11:08:39.524Z,6128
2019-02-26T11:09:38.799Z,6092
2019-02-26T11:10:39.878Z,6068
2019-02-26T11:11:44.226Z,6080
2019-02-26T11:12:41.007Z,6020
2019-02-26T11:13:37.263Z,6012
2019-02-26T11:14:44.263Z,5972
2019-02-26T11:15:40.879Z,5968
2019-02-26T11:16:41.573Z,5980
2019-02-26T11:17:38.670Z,5956
2019-02-26T11:18:39.795Z,5928
2019-02-26T11:19:44.444Z,5928
2019-02-26T11:20:39.249Z,5924
2019-02-26T11:21:35.635Z,5908
2019-02-26T11:22:35.620Z,5904
2019-02-26T11:23:44.001Z,5900
2019-02-26T11:24:41.041Z,5888
2019-02-26T11:25:36.966Z,5884
2019-02-26T11:26:43.860Z,5892
2019-02-26T11:27:40.747Z,5884
2019-02-26T11:28:47.451Z,5876
2019-02-26T11:29:42.689Z,5868
2019-02-26T11:30:38.899Z,5864
2019-02-26T11:31:36.448Z,5848
2019-02-26T11:32:44.599Z,5824
2019-02-26T11:33:35.629Z,5816
2019-02-26T11:34:42.799Z,5820
2019-02-26T11:35:35.612Z,5824
2019-02-26T11:36:43.199Z,5808
2019-02-26T11:37:37.464Z,5776
2019-02-26T11:38:40.103Z,5792
2019-02-26T11:39:35.591Z,5792
2019-02-26T11:40:38.234Z,5768
2019-02-26T11:41:40.601Z,5728
2019-02-26T11:42:35.941Z,5724
2019-02-26T11:43:35.928Z,5728
2019-02-26T11:44:35.820Z,5720
2019-02-26T11:45:41.952Z,5680
2019-02-26T11:46:39.685Z,5708
2019-02-26T11:47:43.670Z,5672
2019-02-26T11:48:38.652Z,5664
2019-02-26T11:49:39.420Z,5668
2019-02-26T11:50:35.827Z,5664
2019-02-26T11:51:46.958Z,5656
2019-02-26T11:52:38.576Z,5640
2019-02-26T11:53:37.211Z,5620
2019-02-26T11:54:45.133Z,5608
2019-02-26T11:55:42.053Z,5544
2019-02-26T11:56:38.356Z,5552
2019-02-26T11:57:47.846Z,5516
2019-02-26T11:58:35.307Z,5520
2019-02-26T11:59:42.783Z,5456
2019-02-26T12:00:49.701Z,5488
2019-02-26T12:01:42.325Z,5480
2019-02-26T12:02:45.728Z,5460
2019-02-26T12:03:45.579Z,5464
2019-02-26T12:04:35.558Z,5460
2019-02-26T12:05:43.987Z,5444
2019-02-26T12:06:35.799Z,5440
2019-02-26T12:07:39.602Z,5448
2019-02-26T12:08:37.112Z,5424
2019-02-26T12:09:43.617Z,5484
2019-02-26T12:10:43.005Z,5472
2019-02-26T12:11:35.557Z,5460
2019-02-26T12:12:40.621Z,5448
2019-02-26T12:13:35.547Z,5464
2019-02-26T12:14:41.066Z,5448
2019-02-26T12:17:41.298Z,5448
2019-02-26T12:17:58.636Z,5444
2019-02-26T12:18:53.466Z,5432
2019-02-26T12:19:56.165Z,5388
2019-02-26T12:20:55.557Z,5364
2019-02-26T12:22:00.776Z,5300
2019-02-26T12:22:57.668Z,5264
2019-02-26T12:23:53.620Z,5292
2019-02-26T12:24:59.666Z,5276
2019-02-26T12:25:55.495Z,5264
2019-02-26T12:26:57.147Z,5268
2019-02-26T12:27:52.793Z,5248
2019-02-26T12:28:52.250Z,5320
2019-02-26T12:29:56.778Z,5300
2019-02-26T12:30:53.315Z,5244
2019-02-26T12:31:55.631Z,5272
2019-02-26T12:32:57.673Z,5288
2019-02-26T12:33:51.208Z,5216
2019-02-26T12:34:55.995Z,5088
2019-02-26T12:35:51.196Z,5060
2019-02-26T12:36:57.074Z,5096
2019-02-26T12:37:56.481Z,5216
2019-02-26T12:38:59.179Z,5332
2019-02-26T12:40:00.127Z,5368
2019-02-26T12:40:57.841Z,5368
2019-02-26T12:41:52.747Z,5360
2019-02-26T12:42:50.960Z,5352
2019-02-26T12:43:53.617Z,5348
2019-02-26T12:44:52.752Z,5340
2019-02-26T12:45:51.883Z,5352
2019-02-26T12:47:00.342Z,5320
2019-02-26T12:47:59.660Z,5284
2019-02-26T12:48:54.975Z,5332
2019-02-26T12:49:52.053Z,5284
2019-02-26T12:50:52.083Z,5368
2019-02-26T12:51:57.561Z,5356
2019-02-26T12:54:18.172Z,5312
2019-02-26T12:55:15.576Z,5240
2019-02-26T12:56:15.199Z,5196
2019-02-26T12:59:12.439Z,5192
2019-02-26T12:59:21.613Z,5204
2019-02-26T13:00:28.706Z,5224
2019-02-26T13:01:21.869Z,5224
2019-02-26T13:02:29.332Z,5224
2019-02-26T13:03:27.246Z,5192
2019-02-26T13:04:29.818Z,5220
2019-02-26T13:05:27.687Z,5268
2019-02-26T13:06:27.381Z,5264
2019-02-26T13:07:21.869Z,5248
2019-02-26T13:08:29.000Z,5296
2019-02-26T13:09:26.569Z,5268
2019-02-26T13:10:22.280Z,5252
2019-02-26T13:11:29.519Z,5212
2019-02-26T13:12:33.970Z,5172
2019-02-26T13:13:22.109Z,5180
2019-02-26T13:14:21.864Z,5172
2019-02-26T13:17:34.631Z,5016
2019-02-26T13:17:48.711Z,5044
2019-02-26T13:18:44.686Z,5080
2019-02-26T13:19:44.431Z,5028
2019-02-26T13:20:44.287Z,4976
2019-02-26T13:21:51.721Z,4928
2019-02-26T13:22:50.507Z,4940
2019-02-26T13:23:44.283Z,4984
2019-02-26T13:24:43.802Z,4972
2019-02-26T13:25:43.775Z,4952
2019-02-26T13:26:55.558Z,4960
2019-02-26T13:27:50.882Z,4916
2019-02-26T13:29:00.328Z,4892
2019-02-26T13:29:59.682Z,4712
2019-02-26T13:30:44.058Z,4828
2019-02-26T13:34:02.300Z,4616
2019-02-26T13:34:18.661Z,4600
2019-02-26T13:35:14.803Z,4596
2019-02-26T13:36:12.022Z,4516
2019-02-26T13:37:11.788Z,4308
2019-02-26T13:38:11.536Z,4324
2019-02-26T13:39:11.902Z,4628
2019-02-26T13:41:43.412Z,4848
2019-02-26T13:42:26.867Z,4840
2019-02-26T13:43:28.602Z,4824
2019-02-26T13:44:26.871Z,4808
2019-02-26T13:45:27.375Z,4780
2019-02-26T13:46:27.371Z,4760
2019-02-26T13:47:26.874Z,4764
2019-02-26T13:48:27.374Z,4788
2019-02-26T13:49:26.871Z,4808
2019-02-26T13:50:27.123Z,4832
2019-02-26T13:51:27.378Z,4872
2019-02-26T13:52:27.374Z,4936
2019-02-26T13:53:27.126Z,4908
2019-02-26T13:54:27.127Z,4900
2019-02-26T13:55:27.131Z,4904
2019-02-26T13:56:27.412Z,4892
2019-02-26T13:57:27.099Z,4872
2019-02-26T13:58:27.203Z,4852
2019-02-26T13:59:27.394Z,4840
2019-02-26T14:00:33.855Z,4828
2019-02-26T14:01:26.880Z,4852
2019-02-26T14:02:27.142Z,4884
2019-02-26T14:03:27.142Z,4912